createdAt,value
2023-11-30T00:01:27.308Z,68.03
2023-11-30T00:03:56.137Z,68.10
2023-11-30T00:06:24.867Z,68.31
2023-11-30T00:08:54.819Z,68.15
2023-11-30T00:11:23.500Z,68.35
2023-11-30T00:13:52.111Z,68.16
2023-11-30T00:16:20.754Z,67.76
2023-11-30T00:18:50.785Z,67.62
2023-11-30T00:21:20.516Z,67.48
2023-11-30T00:23:50.298Z,67.60
2023-11-30T00:26:18.964Z,67.54
2023-11-30T00:28:56.026Z,67.41
2023-11-30T00:31:27.236Z,67.33
2023-11-30T00:33:58.758Z,66.87
2023-11-30T00:36:27.422Z,67.34
2023-11-30T00:38:56.101Z,66.81
2023-11-30T00:41:24.714Z,66.90
2023-11-30T00:43:53.373Z,66.93
2023-11-30T00:46:22.086Z,66.75
2023-11-30T00:48:50.834Z,66.87
2023-11-30T00:51:20.932Z,66.34
2023-11-30T00:53:49.647Z,66.44
2023-11-30T00:56:18.247Z,66.37
2023-11-30T00:58:46.891Z,66.02
2023-11-30T01:01:15.566Z,66.44
2023-11-30T01:03:44.280Z,65.93
2023-11-30T01:06:13.289Z,66.12
2023-11-30T01:08:43.400Z,65.88
2023-11-30T01:11:12.067Z,65.89
2023-11-30T01:13:40.653Z,65.82
2023-11-30T01:16:11.014Z,65.85
2023-11-30T01:18:39.893Z,66.26
2023-11-30T01:21:09.466Z,66.22
2023-11-30T01:23:38.250Z,66.43
2023-11-30T01:26:08.686Z,67.28
2023-11-30T01:28:37.615Z,68.15
2023-11-30T01:31:06.534Z,68.55
2023-11-30T01:33:37.711Z,69.20
2023-11-30T01:36:07.454Z,70.01
2023-11-30T01:38:36.072Z,70.64
2023-11-30T01:41:04.612Z,71.11
2023-11-30T01:43:34.671Z,71.75
2023-11-30T01:46:04.642Z,72.04
2023-11-30T01:48:35.048Z,72.49
2023-11-30T01:51:07.294Z,72.63
2023-11-30T01:53:37.704Z,72.93
2023-11-30T01:56:08.670Z,73.13
2023-11-30T01:58:39.597Z,72.97
2023-11-30T02:01:09.507Z,73.14
2023-11-30T02:03:39.277Z,73.45
2023-11-30T02:06:08.752Z,73.76
2023-11-30T02:08:37.576Z,73.91
2023-11-30T02:11:07.476Z,74.26
2023-11-30T02:13:36.125Z,74.46
2023-11-30T02:16:06.832Z,74.77
2023-11-30T02:18:35.520Z,74.46
2023-11-30T02:21:04.160Z,75.10
2023-11-30T02:23:34.192Z,75.55
2023-11-30T02:26:03.328Z,74.95
2023-11-30T02:28:32.933Z,75.01
2023-11-30T02:31:01.506Z,75.65
2023-11-30T02:33:30.118Z,75.34
2023-11-30T02:35:58.812Z,75.85
2023-11-30T02:38:27.339Z,75.56
2023-11-30T02:40:57.379Z,75.79
2023-11-30T02:43:29.386Z,75.86
2023-11-30T02:45:58.182Z,76.13
2023-11-30T02:48:26.801Z,75.91
2023-11-30T02:50:55.456Z,75.55
2023-11-30T02:53:24.098Z,75.77
2023-11-30T02:55:52.724Z,75.90
2023-11-30T02:58:22.704Z,75.85
2023-11-30T03:00:51.404Z,75.67
2023-11-30T03:03:20.167Z,75.71
2023-11-30T03:05:48.788Z,75.93
2023-11-30T03:08:17.689Z,76.01
2023-11-30T03:10:47.548Z,76.20
2023-11-30T03:13:16.236Z,75.96
2023-11-30T03:15:49.389Z,76.43
2023-11-30T03:18:18.477Z,76.49
2023-11-30T03:20:47.647Z,76.21
2023-11-30T03:23:16.278Z,76.41
2023-11-30T03:25:44.953Z,76.60
2023-11-30T03:28:13.612Z,76.42
2023-11-30T03:30:43.685Z,76.69
2023-11-30T03:33:14.341Z,76.45
2023-11-30T03:35:44.178Z,76.57
2023-11-30T03:38:13.895Z,76.69
2023-11-30T03:40:43.465Z,76.83
2023-11-30T03:43:12.092Z,76.78
2023-11-30T03:45:40.706Z,76.75
2023-11-30T03:48:09.483Z,76.80
2023-11-30T03:50:39.592Z,76.49
2023-11-30T03:53:08.247Z,76.54
2023-11-30T03:55:37.035Z,76.07
2023-11-30T03:58:06.492Z,75.92
2023-11-30T04:00:35.317Z,76.42
2023-11-30T04:06:53.090Z,76.62
2023-11-30T04:09:21.798Z,76.35
2023-11-30T04:11:50.651Z,76.43
2023-11-30T04:14:20.221Z,76.14
2023-11-30T04:16:48.960Z,76.68
2023-11-30T04:19:17.541Z,76.33
2023-11-30T04:21:46.182Z,76.55
2023-11-30T04:24:17.390Z,76.70
2023-11-30T04:26:46.142Z,76.84
2023-11-30T04:29:14.660Z,77.07
2023-11-30T04:31:43.285Z,77.40
2023-11-30T04:34:12.076Z,77.47
2023-11-30T04:36:40.638Z,77.29
2023-11-30T04:39:09.464Z,77.52
2023-11-30T04:41:39.630Z,77.47
2023-11-30T04:44:08.391Z,77.23
2023-11-30T04:46:37.067Z,77.37
2023-11-30T04:49:07.213Z,77.23
2023-11-30T04:51:36.868Z,77.33
2023-11-30T04:54:05.702Z,77.33
2023-11-30T04:56:34.341Z,77.36
2023-11-30T04:59:04.525Z,77.28
2023-11-30T05:01:34.263Z,77.59
2023-11-30T05:04:05.411Z,77.14
2023-11-30T05:06:34.817Z,77.20
2023-11-30T05:09:04.197Z,77.17
2023-11-30T05:11:32.893Z,76.76
2023-11-30T05:14:01.503Z,76.77
2023-11-30T05:16:31.518Z,76.87
2023-11-30T05:19:00.126Z,76.68
2023-11-30T05:21:28.941Z,76.68
2023-11-30T05:23:57.556Z,76.72
2023-11-30T05:26:26.219Z,76.52
2023-11-30T05:28:54.845Z,76.69
2023-11-30T05:31:23.500Z,76.14
2023-11-30T05:33:53.459Z,76.34
2023-11-30T05:36:22.140Z,76.23
2023-11-30T05:38:51.660Z,76.42
2023-11-30T05:41:20.321Z,76.65
2023-11-30T05:43:48.997Z,76.44
2023-11-30T05:46:17.607Z,77.07
2023-11-30T05:48:46.739Z,76.86
2023-11-30T05:51:16.881Z,76.86
2023-11-30T05:53:45.567Z,76.42
2023-11-30T05:56:14.269Z,76.82
2023-11-30T05:58:42.881Z,76.86
2023-11-30T06:01:11.503Z,76.52
2023-11-30T06:03:40.606Z,77.15
2023-11-30T06:06:11.217Z,76.86
2023-11-30T06:08:41.393Z,76.97
2023-11-30T06:11:10.441Z,77.05
2023-11-30T06:13:39.126Z,76.60
2023-11-30T06:16:08.852Z,76.74
2023-11-30T06:18:37.485Z,76.84
2023-11-30T06:21:10.750Z,76.72
2023-11-30T06:23:40.821Z,77.05
2023-11-30T06:26:10.314Z,76.95
2023-11-30T06:28:38.841Z,76.31
2023-11-30T06:31:08.443Z,76.86
2023-11-30T06:33:37.121Z,76.79
2023-11-30T06:36:06.673Z,76.30
2023-11-30T06:38:35.364Z,77.00
2023-11-30T06:41:12.646Z,76.37
2023-11-30T06:43:42.248Z,76.84
2023-11-30T06:46:10.929Z,76.99
2023-11-30T06:48:39.587Z,77.40
2023-11-30T06:51:09.334Z,77.96
2023-11-30T06:53:38.040Z,77.67
2023-11-30T06:56:11.575Z,77.34
2023-11-30T06:58:40.465Z,77.83
2023-11-30T07:01:09.370Z,77.44
2023-11-30T07:03:42.714Z,77.68
2023-11-30T07:06:12.627Z,77.81
2023-11-30T07:08:41.316Z,77.14
2023-11-30T07:11:13.405Z,77.23
2023-11-30T07:13:41.981Z,77.66
2023-11-30T07:16:12.111Z,77.12
2023-11-30T07:18:40.901Z,77.18
2023-11-30T07:21:14.885Z,77.48
2023-11-30T07:23:44.235Z,76.89
2023-11-30T07:26:15.048Z,77.21
2023-11-30T07:28:44.215Z,76.89
2023-11-30T07:31:20.790Z,76.83
2023-11-30T07:33:49.776Z,76.85
2023-11-30T07:36:18.612Z,76.30
2023-11-30T07:38:47.308Z,76.41
2023-11-30T07:41:18.843Z,76.11
2023-11-30T07:43:47.471Z,76.63
2023-11-30T07:46:16.664Z,76.86
2023-11-30T07:48:45.317Z,76.36
2023-11-30T07:51:14.185Z,76.26
2023-11-30T07:53:42.794Z,76.47
2023-11-30T07:56:12.504Z,77.15
2023-11-30T07:58:45.341Z,76.16
2023-11-30T08:01:14.316Z,76.69
2023-11-30T08:03:44.045Z,77.41
2023-11-30T08:06:12.856Z,76.64
2023-11-30T08:08:41.480Z,77.33
2023-11-30T08:11:10.198Z,76.52
2023-11-30T08:13:38.853Z,76.92
2023-11-30T08:16:09.995Z,77.17
2023-11-30T08:18:40.267Z,77.46
2023-11-30T08:21:09.107Z,77.31
2023-11-30T08:23:39.234Z,77.03
2023-11-30T08:26:08.285Z,77.01
2023-11-30T08:28:36.864Z,76.97
2023-11-30T08:31:07.141Z,77.26
2023-11-30T08:33:37.243Z,77.31
2023-11-30T08:36:06.348Z,77.52
2023-11-30T08:38:37.527Z,77.61
2023-11-30T08:41:06.440Z,77.99
2023-11-30T08:43:35.044Z,78.02
2023-11-30T08:46:03.853Z,78.21
2023-11-30T08:48:32.603Z,78.04
2023-11-30T08:51:02.843Z,77.67
2023-11-30T08:53:31.507Z,78.21
2023-11-30T08:56:00.053Z,77.71
2023-11-30T08:58:28.852Z,78.10
2023-11-30T09:00:57.496Z,77.63
2023-11-30T09:03:26.372Z,78.36
2023-11-30T09:05:55.262Z,77.95
2023-11-30T09:08:25.190Z,78.50
2023-11-30T09:10:53.815Z,78.17
2023-11-30T09:13:22.750Z,78.00
2023-11-30T09:15:51.351Z,78.65
2023-11-30T09:18:20.040Z,78.17
2023-11-30T09:20:49.796Z,78.66
2023-11-30T09:23:18.682Z,78.66
2023-11-30T09:25:48.676Z,78.37
2023-11-30T09:28:17.426Z,79.25
2023-11-30T09:30:47.742Z,79.43
2023-11-30T09:33:16.461Z,78.88
2023-11-30T09:35:46.111Z,78.89
2023-11-30T09:38:14.831Z,78.92
2023-11-30T09:40:45.547Z,79.42
2023-11-30T09:43:19.464Z,79.21
2023-11-30T09:45:49.954Z,79.60
2023-11-30T09:48:19.029Z,79.38
2023-11-30T09:50:52.481Z,79.19
2023-11-30T09:53:22.881Z,80.15
2023-11-30T09:55:51.620Z,80.34
2023-11-30T09:58:22.410Z,80.07
2023-11-30T10:00:51.130Z,79.64
2023-11-30T10:03:19.818Z,80.34
2023-11-30T10:05:48.501Z,80.65
2023-11-30T10:08:17.680Z,80.62
2023-11-30T10:10:49.269Z,80.51
2023-11-30T10:13:17.947Z,80.53
2023-11-30T10:15:48.160Z,80.33
2023-11-30T10:18:16.848Z,80.23
2023-11-30T10:20:46.052Z,80.43
2023-11-30T10:23:15.232Z,80.15
2023-11-30T10:25:47.475Z,80.03
2023-11-30T10:28:16.982Z,80.46
2023-11-30T10:30:48.183Z,79.95
2023-11-30T10:33:24.411Z,79.75
2023-11-30T10:35:54.556Z,80.03
2023-11-30T10:38:35.144Z,80.20
2023-11-30T10:41:09.513Z,79.89
2023-11-30T10:43:39.724Z,79.89
2023-11-30T10:46:10.629Z,79.30
2023-11-30T10:48:41.498Z,79.26
2023-11-30T10:51:13.072Z,80.04
2023-11-30T10:53:49.355Z,80.01
2023-11-30T10:56:20.741Z,79.67
2023-11-30T10:58:49.593Z,79.63
2023-11-30T11:01:19.961Z,79.71
2023-11-30T11:03:57.200Z,79.74
2023-11-30T11:06:28.875Z,79.67
2023-11-30T11:09:04.599Z,79.55
2023-11-30T11:11:33.203Z,79.29
2023-11-30T11:14:03.125Z,79.53
2023-11-30T11:16:42.800Z,79.33
2023-11-30T11:19:12.359Z,79.25
2023-11-30T11:21:42.537Z,79.39
2023-11-30T11:24:12.162Z,79.58
2023-11-30T11:26:48.224Z,79.10
2023-11-30T11:29:24.266Z,79.23
2023-11-30T11:32:02.043Z,79.43
2023-11-30T11:34:32.049Z,79.61
2023-11-30T11:37:00.812Z,79.79
2023-11-30T11:39:29.680Z,79.79
2023-11-30T11:41:58.236Z,79.78
2023-11-30T11:44:27.956Z,79.50
2023-11-30T11:46:56.668Z,79.65
2023-11-30T11:49:26.720Z,79.42
2023-11-30T11:51:56.446Z,79.66
2023-11-30T11:54:26.087Z,79.79
2023-11-30T11:56:55.681Z,79.71
2023-11-30T11:59:25.588Z,79.61
2023-11-30T12:01:54.626Z,79.55
2023-11-30T12:04:35.374Z,79.26
2023-11-30T12:07:14.979Z,79.32
2023-11-30T12:09:43.853Z,79.62
2023-11-30T12:12:13.749Z,79.61
2023-11-30T12:14:42.457Z,79.69
2023-11-30T12:17:11.157Z,79.69
2023-11-30T12:19:41.279Z,79.85
2023-11-30T12:22:09.918Z,79.74
2023-11-30T12:24:38.626Z,79.68
2023-11-30T12:27:07.575Z,79.42
2023-11-30T12:29:36.504Z,79.09
2023-11-30T12:32:05.739Z,79.10
2023-11-30T12:34:34.657Z,78.97
2023-11-30T12:37:05.069Z,78.70
2023-11-30T12:39:34.255Z,78.59
2023-11-30T12:42:03.654Z,78.62
2023-11-30T12:44:34.784Z,78.39
2023-11-30T12:47:03.617Z,78.11
2023-11-30T12:49:34.383Z,78.20
2023-11-30T12:52:07.115Z,78.18
2023-11-30T12:54:35.986Z,77.94
2023-11-30T12:57:05.262Z,78.00
2023-11-30T12:59:34.228Z,77.46
2023-11-30T13:02:03.198Z,77.60
2023-11-30T13:04:31.813Z,77.51
2023-11-30T13:07:00.817Z,77.51
2023-11-30T13:09:33.646Z,77.86
2023-11-30T13:12:02.491Z,78.10
2023-11-30T13:14:31.144Z,78.28
2023-11-30T13:16:59.699Z,78.13
2023-11-30T13:19:30.140Z,78.24
2023-11-30T13:21:58.830Z,78.30
2023-11-30T13:24:27.869Z,78.53
2023-11-30T13:26:57.957Z,78.32
2023-11-30T13:29:26.561Z,78.36
2023-11-30T13:31:55.101Z,78.42
2023-11-30T13:34:23.694Z,78.32
2023-11-30T13:36:52.433Z,78.45
2023-11-30T13:39:21.039Z,78.50
2023-11-30T13:41:50.070Z,78.40
2023-11-30T13:44:20.221Z,78.63
2023-11-30T13:46:48.882Z,78.48
2023-11-30T13:49:17.629Z,78.33
2023-11-30T13:51:46.897Z,78.77
2023-11-30T13:54:17.315Z,78.95
2023-11-30T13:56:46.057Z,79.55
2023-11-30T13:59:14.665Z,79.47
2023-11-30T14:01:44.901Z,79.40
2023-11-30T14:04:13.655Z,79.61
2023-11-30T14:06:42.746Z,79.54
2023-11-30T14:09:15.192Z,79.87
2023-11-30T14:11:44.022Z,79.97
2023-11-30T14:14:12.615Z,80.02
2023-11-30T14:16:41.228Z,79.85
2023-11-30T14:19:11.238Z,80.32
2023-11-30T14:21:40.105Z,80.62
2023-11-30T14:24:09.432Z,80.51
2023-11-30T14:26:39.796Z,80.62
2023-11-30T14:29:08.522Z,80.51
2023-11-30T14:31:37.334Z,80.69
2023-11-30T14:34:06.047Z,80.58
2023-11-30T14:36:36.098Z,80.36
2023-11-30T14:39:05.748Z,80.81
2023-11-30T14:41:34.406Z,80.86
2023-11-30T14:44:04.183Z,80.94
2023-11-30T14:46:32.834Z,80.77
2023-11-30T14:49:01.482Z,80.75
2023-11-30T14:51:30.523Z,80.82
2023-11-30T14:54:04.928Z,80.57
2023-11-30T14:56:33.532Z,80.72
2023-11-30T14:59:03.574Z,81.09
2023-11-30T15:01:32.444Z,81.12
2023-11-30T15:04:01.941Z,81.24
2023-11-30T15:06:30.673Z,81.19
2023-11-30T15:09:00.744Z,81.24
2023-11-30T15:11:29.458Z,81.47
2023-11-30T15:13:58.497Z,81.34
2023-11-30T15:16:27.707Z,81.49
2023-11-30T15:18:56.397Z,81.59
2023-11-30T15:21:25.419Z,81.29
2023-11-30T15:23:54.548Z,81.20
2023-11-30T15:26:24.609Z,81.06
2023-11-30T15:28:54.598Z,81.51
2023-11-30T15:31:27.148Z,81.60
2023-11-30T15:33:55.955Z,81.45
2023-11-30T15:36:24.696Z,81.58
2023-11-30T15:38:53.294Z,81.47
2023-11-30T15:41:23.421Z,81.42
2023-11-30T15:43:52.649Z,81.40
2023-11-30T15:46:22.351Z,81.02
2023-11-30T15:48:51.022Z,81.43
2023-11-30T15:51:20.928Z,81.43
2023-11-30T15:53:49.646Z,81.29
2023-11-30T15:56:21.295Z,81.42
2023-11-30T15:58:52.006Z,81.31
2023-11-30T16:01:20.638Z,81.68
2023-11-30T16:03:52.292Z,81.51
2023-11-30T16:06:22.902Z,81.33
2023-11-30T16:08:51.853Z,81.22
2023-11-30T16:11:20.439Z,81.65
2023-11-30T16:13:51.561Z,81.62
2023-11-30T16:16:20.222Z,81.68
2023-11-30T16:18:49.542Z,81.58
2023-11-30T16:21:19.262Z,81.71
2023-11-30T16:23:48.635Z,81.56
2023-11-30T16:26:21.170Z,81.41
2023-11-30T16:28:51.270Z,81.52
2023-11-30T16:31:19.995Z,81.40
2023-11-30T16:33:50.527Z,81.38
2023-11-30T16:36:20.417Z,81.18
2023-11-30T16:38:49.062Z,81.29
2023-11-30T16:41:17.920Z,81.22
2023-11-30T16:43:46.561Z,81.34
2023-11-30T16:46:17.565Z,81.26
2023-11-30T16:48:47.385Z,81.59
2023-11-30T16:51:16.217Z,81.13
2023-11-30T16:53:45.858Z,80.94
2023-11-30T16:56:14.729Z,80.83
2023-11-30T16:58:43.824Z,81.01
2023-11-30T17:01:13.462Z,80.54
2023-11-30T17:03:43.635Z,80.55
2023-11-30T17:06:12.417Z,80.39
2023-11-30T17:08:41.581Z,80.34
2023-11-30T17:11:10.346Z,80.17
2023-11-30T17:13:39.402Z,80.01
2023-11-30T17:16:09.556Z,79.91
2023-11-30T17:18:40.554Z,79.94
2023-11-30T17:21:10.767Z,79.83
2023-11-30T17:23:40.266Z,80.14
2023-11-30T17:26:09.713Z,79.93
2023-11-30T17:28:38.252Z,79.69
2023-11-30T17:31:07.302Z,79.71
2023-11-30T17:33:36.200Z,79.76
2023-11-30T17:36:06.550Z,79.81
2023-11-30T17:38:37.725Z,79.69
2023-11-30T17:41:06.669Z,79.84
2023-11-30T17:43:35.359Z,79.72
2023-11-30T17:46:04.274Z,79.78
2023-11-30T17:48:32.936Z,79.86
2023-11-30T17:51:01.598Z,79.84
2023-11-30T17:53:30.180Z,79.76
2023-11-30T17:56:00.359Z,79.52
2023-11-30T17:58:28.992Z,79.31
2023-11-30T18:00:58.501Z,79.26
2023-11-30T18:03:28.558Z,79.25
2023-11-30T18:05:57.294Z,79.15
2023-11-30T18:08:28.178Z,79.29
2023-11-30T18:10:57.648Z,79.47
2023-11-30T18:13:27.797Z,79.26
2023-11-30T18:15:56.636Z,79.08
2023-11-30T18:18:25.358Z,79.12
2023-11-30T18:20:54.115Z,78.97
2023-11-30T18:23:22.764Z,79.14
2023-11-30T18:25:51.456Z,79.13
2023-11-30T18:28:20.136Z,79.33
2023-11-30T18:30:51.131Z,79.28
2023-11-30T18:33:20.526Z,79.34
2023-11-30T18:35:49.233Z,79.78
2023-11-30T18:38:17.815Z,79.85
2023-11-30T18:40:46.527Z,79.80
2023-11-30T18:43:17.320Z,80.01
2023-11-30T18:45:46.299Z,79.94
2023-11-30T18:48:16.759Z,80.63
2023-11-30T18:50:45.535Z,80.68
2023-11-30T18:53:14.480Z,80.48
2023-11-30T18:55:44.099Z,80.67
2023-11-30T18:58:13.666Z,80.75
2023-11-30T19:00:42.241Z,80.85
2023-11-30T19:03:12.550Z,80.67
2023-11-30T19:05:42.629Z,80.60
2023-11-30T19:08:11.973Z,80.74
2023-11-30T19:10:41.153Z,81.00
2023-11-30T19:13:09.800Z,80.82
2023-11-30T19:15:42.609Z,80.87
2023-11-30T19:18:11.422Z,81.00
2023-11-30T19:20:42.518Z,80.92
2023-11-30T19:23:11.222Z,80.83
2023-11-30T19:25:42.537Z,80.76
2023-11-30T19:28:11.385Z,81.05
2023-11-30T19:30:39.956Z,81.23
2023-11-30T19:33:08.587Z,81.50
2023-11-30T19:35:38.262Z,81.42
2023-11-30T19:38:08.399Z,81.46
2023-11-30T19:40:37.482Z,81.61
2023-11-30T19:43:06.162Z,81.49
2023-11-30T19:45:34.867Z,81.43
2023-11-30T19:48:04.752Z,81.68
2023-11-30T19:50:35.572Z,81.31
2023-11-30T19:53:05.774Z,81.70
2023-11-30T19:55:35.761Z,81.35
2023-11-30T19:58:04.683Z,81.29
2023-11-30T20:00:33.338Z,81.36
2023-11-30T20:03:03.222Z,81.41
2023-11-30T20:05:32.034Z,81.43
2023-11-30T20:08:00.788Z,81.56
2023-11-30T20:10:30.413Z,81.59
2023-11-30T20:13:00.621Z,81.57
2023-11-30T20:15:31.657Z,81.50
2023-11-30T20:18:00.611Z,81.58
2023-11-30T20:20:29.264Z,81.44
2023-11-30T20:22:58.963Z,81.46
2023-11-30T20:25:28.810Z,81.26
2023-11-30T20:27:57.492Z,81.14
2023-11-30T20:30:29.341Z,81.06
2023-11-30T20:32:58.074Z,81.21
2023-11-30T20:35:26.988Z,81.00
2023-11-30T20:37:55.882Z,81.10
2023-11-30T20:40:24.434Z,80.75
2023-11-30T20:42:54.334Z,80.69
2023-11-30T20:45:23.051Z,80.47
2023-11-30T20:47:53.187Z,80.47
2023-11-30T20:50:21.827Z,80.48
2023-11-30T20:52:50.615Z,80.45
2023-11-30T20:55:21.270Z,80.21
2023-11-30T20:57:50.014Z,80.14
2023-11-30T21:00:19.308Z,80.06
2023-11-30T21:02:48.157Z,80.02
2023-11-30T21:05:19.500Z,79.64
2023-11-30T21:07:48.228Z,79.49
2023-11-30T21:10:16.977Z,79.57
2023-11-30T21:12:45.668Z,79.50
2023-11-30T21:15:14.371Z,79.36
2023-11-30T21:17:43.000Z,79.10
2023-11-30T21:20:12.092Z,79.09
2023-11-30T21:22:44.140Z,79.22
2023-11-30T21:25:13.473Z,79.45
2023-11-30T21:27:43.129Z,79.22
2023-11-30T21:30:13.283Z,79.36
2023-11-30T21:32:42.023Z,78.99
2023-11-30T21:35:11.871Z,79.19
2023-11-30T21:37:40.553Z,79.26
2023-11-30T21:40:11.998Z,79.12
2023-11-30T21:42:40.675Z,79.14
2023-11-30T21:45:09.827Z,79.11
2023-11-30T21:47:38.595Z,79.15
2023-11-30T21:50:17.676Z,78.91
2023-11-30T21:52:47.991Z,79.49
2023-11-30T21:55:19.241Z,79.14
2023-11-30T21:57:49.064Z,79.45
2023-11-30T22:00:19.825Z,79.20
2023-11-30T22:02:48.539Z,79.15
2023-11-30T22:05:26.778Z,79.33
2023-11-30T22:08:01.505Z,79.50
2023-11-30T22:10:31.653Z,79.61
2023-11-30T22:13:00.346Z,79.52
2023-11-30T22:15:30.986Z,79.68
2023-11-30T22:18:00.166Z,79.83
2023-11-30T22:20:29.043Z,79.77
2023-11-30T22:22:57.861Z,79.79
2023-11-30T22:25:26.420Z,79.79
2023-11-30T22:27:56.595Z,80.02
2023-11-30T22:30:25.246Z,80.12
2023-11-30T22:32:54.265Z,80.36
2023-11-30T22:35:23.033Z,81.15
2023-11-30T22:37:51.752Z,81.07
2023-11-30T22:40:20.437Z,81.35
2023-11-30T22:42:49.096Z,81.37
2023-11-30T22:45:19.149Z,81.68
2023-11-30T22:47:47.774Z,81.28
2023-11-30T22:50:16.551Z,81.30
2023-11-30T22:52:45.731Z,81.19
2023-11-30T22:55:14.721Z,81.19
2023-11-30T22:57:43.630Z,81.05
2023-11-30T23:00:21.557Z,81.21
2023-11-30T23:02:53.681Z,80.71
2023-11-30T23:05:22.744Z,81.16
2023-11-30T23:07:51.391Z,81.18
2023-11-30T23:10:20.797Z,81.21
2023-11-30T23:12:50.616Z,81.13
2023-11-30T23:15:19.454Z,81.01
2023-11-30T23:17:49.110Z,80.98
2023-11-30T23:20:19.184Z,81.20
2023-11-30T23:22:47.846Z,81.15
2023-11-30T23:25:16.704Z,81.29
2023-11-30T23:27:45.976Z,81.27
2023-11-30T23:30:15.898Z,81.29
2023-11-30T23:32:47.812Z,81.31
2023-11-30T23:35:19.595Z,80.79
2023-11-30T23:37:49.289Z,81.17
2023-11-30T23:40:18.093Z,81.12
2023-11-30T23:42:46.761Z,81.08
2023-11-30T23:45:15.397Z,81.09
2023-11-30T23:47:44.029Z,81.17
2023-11-30T23:50:12.930Z,81.08
2023-11-30T23:52:42.932Z,80.90
2023-11-30T23:55:11.710Z,80.79
2023-11-30T23:57:40.454Z,80.98
